createdAt,value
2018-07-19T00:01:40.090Z,48.22
2018-07-19T00:04:10.509Z,47.87
2018-07-19T00:06:41.290Z,48.66
2018-07-19T00:09:11.931Z,48.59
2018-07-19T00:11:42.297Z,48.27
2018-07-19T00:14:12.788Z,48.05
2018-07-19T00:16:43.216Z,48.45
2018-07-19T00:19:14.627Z,47.51
2018-07-19T00:21:45.248Z,47.47
2018-07-19T00:24:15.643Z,47.65
2018-07-19T00:26:45.996Z,47.18
2018-07-19T00:29:16.484Z,47.21
2018-07-19T00:31:47.904Z,47.17
2018-07-19T00:34:18.433Z,46.93
2018-07-19T00:36:49.998Z,46.65
2018-07-19T00:39:20.682Z,47.03
2018-07-19T00:41:51.041Z,46.59
2018-07-19T00:44:21.584Z,46.18
2018-07-19T00:46:52.110Z,46.00
2018-07-19T00:49:22.475Z,45.55
2018-07-19T00:51:53.171Z,45.48
2018-07-19T00:54:23.447Z,45.88
2018-07-19T00:56:57.100Z,45.54
2018-07-19T00:59:27.459Z,45.90
2018-07-19T01:01:58.084Z,45.86
2018-07-19T01:04:28.589Z,46.05
2018-07-19T01:06:59.142Z,45.99
2018-07-19T01:09:29.646Z,46.17
2018-07-19T01:12:00.060Z,46.16
2018-07-19T01:14:30.393Z,46.68
2018-07-19T01:17:01.208Z,46.69
2018-07-19T01:19:31.736Z,46.13
2018-07-19T01:22:02.140Z,46.57
2018-07-19T01:24:32.715Z,46.55
2018-07-19T01:27:03.199Z,46.92
2018-07-19T01:29:33.688Z,46.52
2018-07-19T01:32:04.015Z,46.73
2018-07-19T01:34:34.389Z,46.84
2018-07-19T01:37:04.878Z,47.49
2018-07-19T01:39:37.032Z,47.48
2018-07-19T01:42:20.158Z,47.58
2018-07-19T01:44:50.637Z,47.14
2018-07-19T01:47:21.008Z,47.41
2018-07-19T01:49:51.595Z,47.43
2018-07-19T01:52:21.975Z,47.86
2018-07-19T01:54:52.546Z,48.29
2018-07-19T01:57:22.989Z,48.56
2018-07-19T01:59:54.348Z,48.21
2018-07-19T02:02:24.842Z,48.38
2018-07-19T02:04:55.405Z,48.51
2018-07-19T02:07:26.179Z,48.43
2018-07-19T02:09:56.712Z,48.24
2018-07-19T02:12:27.380Z,49.56
2018-07-19T02:14:58.021Z,50.96
2018-07-19T02:17:28.580Z,51.31
2018-07-19T02:19:59.071Z,50.82
2018-07-19T02:22:29.936Z,51.16
2018-07-19T02:25:00.307Z,52.04
2018-07-19T02:27:31.681Z,52.42
2018-07-19T02:30:02.199Z,52.71
2018-07-19T02:32:32.958Z,52.09
2018-07-19T02:35:03.536Z,52.83
2018-07-19T02:37:33.958Z,53.06
2018-07-19T02:40:04.528Z,52.50
2018-07-19T02:42:34.941Z,52.28
2018-07-19T02:45:05.539Z,53.26
2018-07-19T02:47:36.378Z,54.19
2018-07-19T02:50:07.046Z,54.06
2018-07-19T02:52:37.431Z,53.95
2018-07-19T02:55:07.826Z,54.21
2018-07-19T02:57:38.475Z,53.13
2018-07-19T03:00:08.985Z,53.02
2018-07-19T03:02:39.555Z,52.99
2018-07-19T03:05:10.377Z,53.72
2018-07-19T03:07:41.202Z,53.71
2018-07-19T03:10:11.536Z,53.55
2018-07-19T03:12:42.014Z,53.15
2018-07-19T03:15:12.529Z,53.41
2018-07-19T03:17:43.189Z,53.77
2018-07-19T03:20:13.569Z,53.73
2018-07-19T03:22:44.997Z,53.87
2018-07-19T03:25:15.406Z,54.01
2018-07-19T03:27:45.952Z,53.92
2018-07-19T03:30:16.494Z,54.08
2018-07-19T03:32:46.854Z,55.13
2018-07-19T03:35:17.506Z,55.82
2018-07-19T03:37:48.813Z,55.61
2018-07-19T03:40:19.214Z,56.21
2018-07-19T03:42:49.872Z,56.56
2018-07-19T03:45:20.439Z,55.21
2018-07-19T03:47:50.786Z,55.74
2018-07-19T03:50:21.272Z,55.42
2018-07-19T03:52:51.757Z,55.52
2018-07-19T03:55:22.211Z,56.48
2018-07-19T03:57:53.836Z,57.06
2018-07-19T04:00:24.468Z,57.02
2018-07-19T04:02:55.024Z,56.72
2018-07-19T04:05:25.445Z,56.98
2018-07-19T04:07:56.120Z,56.21
2018-07-19T04:10:26.659Z,56.58
2018-07-19T04:12:57.357Z,56.84
2018-07-19T04:15:27.786Z,57.44
2018-07-19T04:17:59.139Z,57.55
2018-07-19T04:20:31.151Z,58.92
2018-07-19T04:23:01.725Z,59.84
2018-07-19T04:25:32.147Z,59.17
2018-07-19T04:28:02.608Z,58.56
2018-07-19T04:30:33.219Z,58.63
2018-07-19T04:33:03.872Z,59.00
2018-07-19T04:35:34.342Z,59.71
2018-07-19T04:38:05.737Z,59.15
2018-07-19T04:40:36.159Z,59.96
2018-07-19T04:43:06.547Z,58.34
2018-07-19T04:45:37.231Z,57.60
2018-07-19T04:48:07.773Z,57.32
2018-07-19T04:50:38.381Z,56.42
2018-07-19T04:53:08.861Z,55.52
2018-07-19T04:55:39.277Z,54.27
2018-07-19T04:58:09.846Z,51.71
2018-07-19T05:00:40.315Z,51.87
2018-07-19T05:03:10.937Z,51.66
2018-07-19T05:05:41.396Z,51.35
2018-07-19T05:08:12.178Z,51.01
2018-07-19T05:10:42.687Z,50.84
2018-07-19T05:13:13.165Z,49.70
2018-07-19T05:15:43.967Z,47.91
2018-07-19T05:18:14.640Z,48.40
2018-07-19T05:20:45.135Z,46.80
2018-07-19T05:23:15.641Z,46.13
2018-07-19T05:25:46.142Z,44.79
2018-07-19T05:28:16.580Z,44.69
2018-07-19T05:30:47.388Z,44.82
2018-07-19T05:33:18.179Z,44.25
2018-07-19T05:35:49.902Z,43.94
2018-07-19T05:38:20.539Z,44.06
2018-07-19T05:40:51.179Z,45.15
2018-07-19T05:43:21.710Z,45.13
2018-07-19T05:45:52.110Z,45.41
2018-07-19T05:48:22.575Z,45.35
2018-07-19T05:50:53.098Z,45.48
2018-07-19T05:53:23.663Z,44.24
2018-07-19T05:55:54.128Z,44.07
2018-07-19T05:58:25.675Z,45.66
2018-07-19T06:00:56.113Z,46.93
2018-07-19T06:03:26.724Z,48.64
2018-07-19T06:05:57.262Z,49.13
2018-07-19T06:08:27.766Z,49.04
2018-07-19T06:10:58.940Z,49.57
2018-07-19T06:13:29.433Z,50.76
2018-07-19T06:16:00.181Z,52.09
2018-07-19T06:18:30.735Z,53.14
2018-07-19T06:21:01.341Z,51.78
2018-07-19T06:23:31.842Z,53.04
2018-07-19T06:26:02.507Z,53.21
2018-07-19T06:28:33.370Z,52.37
2018-07-19T06:31:04.272Z,50.68
2018-07-19T06:33:35.112Z,51.08
2018-07-19T06:36:05.788Z,50.39
2018-07-19T06:38:36.312Z,50.61
2018-07-19T06:41:06.849Z,49.26
2018-07-19T06:43:37.438Z,49.21
2018-07-19T06:46:08.200Z,47.70
2018-07-19T06:48:38.998Z,48.11
2018-07-19T06:51:09.638Z,44.45
2018-07-19T06:53:40.189Z,42.90
2018-07-19T06:56:10.993Z,41.24
2018-07-19T06:58:41.629Z,41.43
2018-07-19T07:01:12.079Z,40.88
2018-07-19T07:03:42.711Z,41.14
2018-07-19T07:06:13.783Z,39.96
2018-07-19T07:08:44.696Z,40.58
2018-07-19T07:11:16.252Z,39.50
2018-07-19T07:13:46.689Z,41.04
2018-07-19T07:16:17.220Z,39.34
2018-07-19T07:18:47.549Z,38.81
2018-07-19T07:21:18.056Z,38.36
2018-07-19T07:23:48.622Z,38.58
2018-07-19T07:26:19.824Z,38.29
2018-07-19T07:28:50.411Z,38.75
2018-07-19T07:31:20.839Z,38.57
2018-07-19T07:33:51.527Z,38.79
2018-07-19T07:36:22.107Z,39.39
2018-07-19T07:38:52.706Z,39.65
2018-07-19T07:41:24.077Z,39.16
2018-07-19T07:43:54.530Z,38.87
2018-07-19T07:46:25.064Z,39.56
2018-07-19T07:48:55.816Z,40.55
2018-07-19T07:51:26.263Z,40.66
2018-07-19T07:53:56.988Z,40.83
2018-07-19T07:56:27.675Z,40.86
2018-07-19T07:58:58.108Z,39.76
2018-07-19T08:01:28.806Z,40.02
2018-07-19T08:03:59.498Z,39.83
2018-07-19T08:06:30.357Z,40.32
2018-07-19T08:09:01.514Z,39.52
2018-07-19T08:11:32.210Z,39.43
2018-07-19T08:14:02.883Z,38.93
2018-07-19T08:16:33.525Z,37.82
2018-07-19T08:19:04.252Z,37.91
2018-07-19T08:21:36.051Z,37.91
2018-07-19T08:24:07.314Z,38.32
2018-07-19T08:26:37.995Z,38.85
2018-07-19T08:29:08.820Z,40.47
2018-07-19T08:31:39.703Z,40.67
2018-07-19T08:34:10.187Z,40.82
2018-07-19T08:36:40.855Z,41.54
2018-07-19T08:39:13.947Z,41.46
2018-07-19T08:41:45.781Z,42.60
2018-07-19T08:44:16.548Z,41.57
2018-07-19T08:46:47.187Z,41.77
2018-07-19T08:49:18.196Z,41.42
2018-07-19T08:51:48.973Z,40.51
2018-07-19T08:54:19.884Z,40.19
2018-07-19T08:56:50.831Z,40.33
2018-07-19T08:59:21.743Z,40.37
2018-07-19T09:01:53.308Z,40.07
2018-07-19T09:04:24.984Z,40.63
2018-07-19T09:06:57.385Z,37.79
2018-07-19T09:09:29.788Z,37.78
2018-07-19T09:12:02.739Z,38.23
2018-07-19T09:14:35.133Z,38.00
2018-07-19T09:17:07.667Z,38.14
2018-07-19T09:19:40.153Z,38.48
2018-07-19T09:22:12.626Z,39.62
2018-07-19T09:24:45.576Z,40.74
2018-07-19T09:27:18.336Z,40.34
2018-07-19T09:29:51.338Z,41.59
2018-07-19T09:32:25.776Z,41.79
2018-07-19T09:34:58.825Z,41.16
2018-07-19T09:37:31.809Z,41.40
2018-07-19T09:40:04.016Z,40.91
2018-07-19T09:42:37.645Z,41.09
2018-07-19T09:45:10.707Z,41.22
2018-07-19T09:47:43.370Z,40.60
2018-07-19T09:50:15.941Z,40.96
2018-07-19T09:52:49.646Z,40.69
2018-07-19T09:55:22.625Z,40.92
2018-07-19T09:57:55.350Z,40.58
2018-07-19T10:00:32.754Z,40.21
2018-07-19T10:03:05.801Z,40.99
2018-07-19T10:05:39.150Z,41.06
2018-07-19T10:08:12.936Z,41.56
2018-07-19T10:10:46.711Z,41.20
2018-07-19T10:13:19.870Z,42.13
2018-07-19T10:15:52.737Z,41.85
2018-07-19T10:18:25.399Z,41.51
2018-07-19T10:20:59.188Z,41.53
2018-07-19T10:23:32.127Z,41.62
2018-07-19T10:26:05.900Z,42.37
2018-07-19T10:28:38.665Z,41.92
2018-07-19T10:31:12.440Z,41.14
2018-07-19T10:33:45.613Z,41.05
2018-07-19T10:36:18.107Z,40.91
2018-07-19T10:38:51.086Z,41.74
2018-07-19T10:41:23.943Z,40.05
2018-07-19T10:43:56.952Z,39.74
2018-07-19T10:46:30.234Z,39.81
2018-07-19T10:49:04.289Z,40.10
2018-07-19T10:51:37.315Z,39.56
2018-07-19T10:54:10.523Z,39.71
2018-07-19T10:56:43.177Z,39.43
2018-07-19T10:59:16.657Z,40.10
2018-07-19T11:01:49.518Z,40.10
2018-07-19T11:04:22.264Z,40.08
2018-07-19T11:06:55.139Z,38.24
2018-07-19T11:09:28.088Z,36.39
2018-07-19T11:12:01.062Z,35.54
2018-07-19T11:14:34.629Z,35.98
2018-07-19T11:17:09.170Z,32.56
2018-07-19T11:19:42.545Z,30.09
2018-07-19T11:22:15.378Z,31.40
2018-07-19T11:24:48.293Z,31.31
2018-07-19T11:27:23.253Z,31.58
2018-07-19T11:29:53.840Z,31.76
2018-07-19T11:32:24.368Z,33.46
2018-07-19T11:34:54.820Z,33.30
2018-07-19T11:37:25.552Z,33.82
2018-07-19T11:39:56.290Z,34.01
2018-07-19T11:42:27.050Z,34.45
2018-07-19T11:44:57.817Z,33.56
2018-07-19T11:47:28.370Z,33.97
2018-07-19T11:49:58.798Z,34.95
2018-07-19T11:52:29.349Z,35.37
2018-07-19T11:54:59.800Z,34.63
2018-07-19T11:57:30.286Z,35.20
2018-07-19T12:00:00.671Z,34.76
2018-07-19T12:02:31.340Z,35.86
2018-07-19T12:05:02.022Z,34.64
2018-07-19T12:07:32.468Z,35.74
2018-07-19T12:10:03.352Z,35.55
2018-07-19T12:12:33.929Z,36.08
2018-07-19T12:15:04.775Z,36.58
2018-07-19T12:17:35.227Z,36.81
2018-07-19T12:20:05.941Z,36.11
2018-07-19T12:22:36.667Z,36.53
2018-07-19T12:25:07.738Z,36.45
2018-07-19T12:27:38.576Z,36.71
2018-07-19T12:30:09.363Z,36.91
2018-07-19T12:32:40.137Z,36.87
2018-07-19T12:35:10.774Z,37.33
2018-07-19T12:37:41.264Z,37.71
2018-07-19T12:40:11.785Z,37.55
2018-07-19T12:42:42.210Z,36.69
2018-07-19T12:45:13.576Z,36.33
2018-07-19T12:47:44.069Z,36.55
2018-07-19T12:50:14.626Z,36.09
2018-07-19T12:52:45.335Z,36.53
2018-07-19T12:55:15.911Z,35.93
2018-07-19T12:57:46.293Z,36.09
2018-07-19T13:00:16.934Z,35.23
2018-07-19T13:02:47.346Z,36.04
2018-07-19T13:05:18.526Z,35.84
2018-07-19T13:07:49.061Z,34.83
2018-07-19T13:10:19.539Z,34.96
2018-07-19T13:12:51.473Z,34.71
2018-07-19T13:15:21.987Z,35.86
2018-07-19T13:17:52.393Z,34.96
2018-07-19T13:20:22.997Z,35.17
2018-07-19T13:22:53.545Z,34.78
2018-07-19T13:25:24.541Z,35.47
2018-07-19T13:27:54.851Z,35.49
2018-07-19T13:30:25.636Z,36.06
2018-07-19T13:32:56.127Z,36.58
2018-07-19T13:35:26.575Z,36.42
2018-07-19T13:37:57.144Z,36.68
2018-07-19T13:40:27.920Z,36.82
2018-07-19T13:42:58.511Z,37.71
2018-07-19T13:45:29.255Z,38.18
2018-07-19T13:48:00.035Z,38.68
2018-07-19T13:50:30.769Z,38.75
2018-07-19T13:54:11.784Z,38.89
2018-07-19T13:56:42.436Z,38.76
2018-07-19T13:59:13.023Z,38.99
2018-07-19T14:01:43.705Z,39.42
2018-07-19T14:04:14.373Z,39.61
2018-07-19T14:06:45.010Z,39.19
2018-07-19T14:09:16.184Z,40.57
2018-07-19T14:11:47.398Z,40.47
2018-07-19T14:14:17.710Z,40.36
2018-07-19T14:16:48.145Z,41.17
2018-07-19T14:19:18.531Z,41.52
2018-07-19T14:21:48.825Z,40.96
2018-07-19T14:24:19.464Z,41.69
2018-07-19T14:26:50.125Z,42.04
2018-07-19T14:29:20.569Z,41.43
2018-07-19T14:31:50.845Z,41.22
2018-07-19T14:34:21.440Z,41.14
2018-07-19T14:36:51.886Z,41.64
2018-07-19T14:39:22.465Z,41.43
2018-07-19T14:41:52.936Z,41.63
2018-07-19T14:44:23.566Z,41.48
2018-07-19T14:46:54.042Z,41.49
2018-07-19T14:49:24.546Z,42.24
2018-07-19T14:51:54.805Z,41.56
2018-07-19T14:54:25.309Z,41.60
2018-07-19T14:56:55.777Z,41.95
2018-07-19T14:59:26.251Z,42.42
2018-07-19T15:01:56.858Z,43.02
2018-07-19T15:04:27.469Z,42.72
2018-07-19T15:06:57.812Z,42.59
2018-07-19T15:09:28.449Z,42.91
2018-07-19T15:11:58.796Z,42.64
2018-07-19T15:14:29.283Z,43.19
2018-07-19T15:16:59.671Z,43.27
2018-07-19T15:19:30.204Z,43.33
2018-07-19T15:22:01.007Z,43.64
2018-07-19T15:24:31.474Z,43.66
2018-07-19T15:27:02.666Z,43.55
2018-07-19T15:29:33.055Z,43.54
2018-07-19T15:32:03.499Z,43.60
2018-07-19T15:34:34.158Z,43.46
2018-07-19T15:37:04.650Z,43.76
2018-07-19T15:39:35.294Z,43.60
2018-07-19T15:42:05.794Z,43.48
2018-07-19T15:44:36.325Z,44.23
2018-07-19T15:47:12.031Z,44.22
2018-07-19T15:49:43.187Z,43.80
2018-07-19T15:52:13.817Z,44.41
2018-07-19T15:54:44.340Z,43.89
2018-07-19T15:57:14.730Z,44.13
2018-07-19T15:59:45.425Z,44.29
2018-07-19T16:02:15.692Z,44.43
2018-07-19T16:04:46.281Z,44.09
2018-07-19T16:07:16.719Z,44.21
2018-07-19T16:09:47.096Z,44.11
2018-07-19T16:12:18.095Z,44.50
2018-07-19T16:14:48.597Z,44.25
2018-07-19T16:17:19.029Z,43.40
2018-07-19T16:19:49.278Z,43.90
2018-07-19T16:22:19.657Z,44.28
2018-07-19T16:24:50.075Z,44.45
2018-07-19T16:27:20.917Z,44.04
2018-07-19T16:29:51.289Z,44.34
2018-07-19T16:32:21.702Z,44.32
2018-07-19T16:34:51.998Z,44.38
2018-07-19T16:37:22.774Z,44.46
2018-07-19T16:39:53.989Z,45.18
2018-07-19T16:42:24.664Z,44.88
2018-07-19T16:44:55.209Z,45.24
2018-07-19T16:47:25.837Z,45.66
2018-07-19T16:49:56.055Z,46.00
2018-07-19T16:52:26.464Z,45.84
2018-07-19T16:54:56.977Z,45.16
2018-07-19T16:57:27.559Z,44.70
2018-07-19T16:59:58.062Z,44.87
2018-07-19T17:02:28.580Z,44.78
2018-07-19T17:04:59.219Z,45.30
2018-07-19T17:07:29.628Z,45.50
2018-07-19T17:09:59.948Z,45.62
2018-07-19T17:12:30.416Z,45.97
2018-07-19T17:15:00.803Z,46.01
2018-07-19T17:17:31.338Z,45.81
2018-07-19T17:20:01.695Z,46.48
2018-07-19T17:22:32.010Z,46.27
2018-07-19T17:25:02.380Z,46.19
2018-07-19T17:27:32.751Z,46.52
2018-07-19T17:30:03.335Z,46.51
2018-07-19T17:32:33.801Z,47.11
2018-07-19T17:35:04.203Z,46.87
2018-07-19T17:37:34.546Z,46.75
2018-07-19T17:40:05.377Z,46.88
2018-07-19T17:42:36.093Z,47.54
2018-07-19T17:45:06.991Z,47.67
2018-07-19T17:47:37.291Z,47.17
2018-07-19T17:50:08.420Z,47.52
2018-07-19T17:52:38.862Z,47.31
2018-07-19T17:55:09.259Z,48.18
2018-07-19T17:57:39.769Z,47.47
2018-07-19T18:00:10.236Z,47.99
2018-07-19T18:02:41.077Z,47.96
2018-07-19T18:05:11.573Z,48.01
2018-07-19T18:07:42.039Z,48.09
2018-07-19T18:10:13.282Z,48.39
2018-07-19T18:12:43.803Z,48.41
2018-07-19T18:15:14.411Z,48.74
2018-07-19T18:17:44.638Z,48.46
2018-07-19T18:20:15.031Z,49.09
2018-07-19T18:26:18.662Z,49.08
2018-07-19T18:28:48.968Z,48.86
2018-07-19T18:31:19.363Z,49.39
2018-07-19T18:33:49.980Z,49.40
2018-07-19T18:36:20.494Z,49.11
2018-07-19T18:38:50.795Z,48.83
2018-07-19T18:41:21.155Z,48.74
2018-07-19T18:43:51.635Z,49.04
2018-07-19T18:46:22.129Z,49.10
2018-07-19T18:48:52.503Z,49.01
2018-07-19T18:51:22.796Z,48.95
2018-07-19T18:53:53.246Z,48.25
2018-07-19T18:56:23.515Z,48.93
2018-07-19T18:58:53.925Z,48.84
2018-07-19T19:01:24.545Z,48.80
2018-07-19T19:03:54.913Z,49.36
2018-07-19T19:06:25.194Z,50.25
2018-07-19T19:08:55.537Z,51.81
2018-07-19T19:11:25.996Z,52.79
2018-07-19T19:13:56.612Z,54.15
2018-07-19T19:16:27.033Z,55.26
2018-07-19T19:18:57.327Z,56.75
2018-07-19T19:21:27.641Z,57.60
2018-07-19T19:23:58.113Z,58.93
2018-07-19T19:26:28.448Z,59.59
2018-07-19T19:28:58.713Z,59.70
2018-07-19T19:31:29.312Z,59.51
2018-07-19T19:33:59.656Z,60.05
2018-07-19T19:36:30.139Z,61.08
2018-07-19T19:39:00.517Z,61.38
2018-07-19T19:41:31.109Z,62.22
2018-07-19T19:44:01.794Z,62.50
2018-07-19T19:46:32.306Z,63.00
2018-07-19T19:49:03.234Z,63.60
2018-07-19T19:51:33.807Z,64.06
2018-07-19T19:54:04.384Z,64.12
2018-07-19T19:56:35.218Z,64.75
2018-07-19T19:59:05.541Z,64.69
2018-07-19T20:01:37.279Z,64.41
2018-07-19T20:04:07.768Z,64.72
2018-07-19T20:06:38.337Z,65.66
2018-07-19T20:09:11.064Z,65.84
2018-07-19T20:11:41.667Z,66.33
2018-07-19T20:14:11.980Z,66.46
2018-07-19T20:16:42.356Z,66.30
2018-07-19T20:19:12.679Z,66.81
2018-07-19T20:21:42.972Z,67.42
2018-07-19T20:24:13.629Z,68.70
2018-07-19T20:26:44.071Z,68.72
2018-07-19T20:29:14.739Z,68.96
2018-07-19T20:31:45.337Z,68.93
2018-07-19T20:34:15.662Z,69.00
2018-07-19T20:36:46.095Z,68.94
2018-07-19T20:39:16.738Z,68.75
2018-07-19T20:41:47.167Z,69.28
2018-07-19T20:44:17.562Z,70.00
2018-07-19T20:46:48.165Z,71.14
2018-07-19T20:49:18.559Z,69.48
2018-07-19T20:51:49.014Z,69.66
2018-07-19T20:54:19.411Z,69.68
2018-07-19T20:56:49.653Z,69.77
2018-07-19T20:59:19.971Z,70.04
2018-07-19T21:01:50.293Z,69.55
2018-07-19T21:04:21.077Z,69.76
2018-07-19T21:06:51.627Z,69.61
2018-07-19T21:09:22.773Z,69.85
2018-07-19T21:11:53.266Z,70.34
2018-07-19T21:14:23.701Z,70.28
2018-07-19T21:16:55.108Z,70.09
2018-07-19T21:19:26.304Z,70.27
2018-07-19T21:21:57.054Z,70.00
2018-07-19T21:24:27.227Z,70.35
2018-07-19T21:26:57.677Z,70.46
2018-07-19T21:29:27.903Z,70.17
2018-07-19T21:31:58.109Z,69.90
2018-07-19T21:34:28.485Z,70.32
2018-07-19T21:36:58.977Z,70.76
2018-07-19T21:39:29.213Z,71.18
2018-07-19T21:41:59.648Z,71.40
2018-07-19T21:44:30.039Z,71.69
2018-07-19T21:47:00.374Z,71.84
2018-07-19T21:49:30.900Z,70.96
2018-07-19T21:52:01.273Z,71.55
2018-07-19T21:54:31.505Z,72.38
2018-07-19T21:57:01.908Z,71.98
2018-07-19T21:59:32.390Z,72.11
2018-07-19T22:02:18.728Z,72.15
2018-07-19T22:04:54.861Z,71.52
2018-07-19T22:07:25.147Z,72.64
2018-07-19T22:09:55.664Z,72.08
2018-07-19T22:12:26.089Z,71.80
2018-07-19T22:14:56.433Z,71.62
2018-07-19T22:17:42.794Z,71.92
2018-07-19T22:20:35.637Z,71.99
2018-07-19T22:23:11.939Z,72.45
2018-07-19T22:25:44.116Z,71.96
2018-07-19T22:28:14.461Z,71.56
2018-07-19T22:31:00.893Z,70.99
2018-07-19T22:33:31.263Z,71.59
2018-07-19T22:36:01.668Z,71.47
2018-07-19T22:38:32.102Z,71.02
2018-07-19T22:41:03.321Z,71.36
2018-07-19T22:43:33.542Z,71.66
2018-07-19T22:46:03.883Z,72.08
2018-07-19T22:48:34.310Z,71.79
2018-07-19T22:51:04.632Z,72.03
2018-07-19T22:53:34.990Z,72.30
2018-07-19T22:56:05.244Z,73.38
2018-07-19T22:58:35.609Z,73.55
2018-07-19T23:01:05.905Z,74.12
2018-07-19T23:03:36.524Z,74.42
2018-07-19T23:06:06.969Z,74.75
2018-07-19T23:08:37.549Z,74.70
2018-07-19T23:11:08.008Z,75.30
2018-07-19T23:13:38.298Z,74.94
2018-07-19T23:16:09.155Z,75.73
2018-07-19T23:18:39.559Z,75.76
2018-07-19T23:21:10.092Z,75.51
2018-07-19T23:23:40.443Z,75.77
2018-07-19T23:26:10.854Z,75.81
2018-07-19T23:28:41.357Z,75.60
2018-07-19T23:31:12.092Z,75.65
2018-07-19T23:33:42.558Z,76.15
2018-07-19T23:36:18.316Z,75.70
2018-07-19T23:38:52.754Z,75.36
2018-07-19T23:41:28.379Z,75.01
2018-07-19T23:44:02.493Z,75.29
2018-07-19T23:46:38.977Z,74.88
2018-07-19T23:49:09.567Z,73.73
2018-07-19T23:51:40.139Z,73.39
2018-07-19T23:54:10.526Z,73.57
2018-07-19T23:56:40.971Z,73.30
2018-07-19T23:59:11.559Z,72.78
